Time;durP1;ratioP1;P1;durP2;ratioP2;P2;SDS_P1;SDS_P2;PMS_P1;PMS_P2;Temp;Humidity;BMP_temperature;BMP_pressure;BME280_temperature;BME280_humidity;BME280_pressure;Samples;Min_cycle;Max_cycle;Signal;HPM_P1;HPM_P2
2020/12/15 00:00:10;;;;;;;14.45;11.48;;;12.10;99.90;;;12.09;89.19;100453.34;5072432;28;20452;-82
2020/12/15 00:02:39;;;;;;;15.05;11.48;;;12.10;99.90;;;12.15;89.13;100453.25;5072813;28;20044;-82
2020/12/15 00:05:06;;;;;;;16.38;11.05;;;12.00;99.90;;;12.08;89.19;100435.69;5072398;28;20052;-82
2020/12/15 00:07:34;;;;;;;16.13;12.10;;;12.00;99.90;;;12.09;89.17;100433.91;5072449;28;20489;-82
2020/12/15 00:10:02;;;;;;;18.35;12.65;;;12.00;99.90;;;12.06;88.90;100410.13;5072166;28;20482;-82
2020/12/15 00:12:29;;;;;;;13.57;10.85;;;12.10;99.90;;;12.20;89.11;100439.91;5072863;28;20105;-82
2020/12/15 00:14:57;;;;;;;16.08;11.48;;;12.10;99.90;;;12.28;88.79;100437.97;5072510;28;20036;-82
2020/12/15 00:17:24;;;;;;;13.38;11.95;;;12.20;99.90;;;12.17;88.35;100413.44;5072559;28;20040;-81
2020/12/15 00:19:52;;;;;;;13.35;11.43;;;12.20;99.90;;;12.24;88.16;100415.94;5072174;28;20151;-81
2020/12/15 00:22:19;;;;;;;14.85;11.23;;;12.20;99.90;;;12.32;88.38;100429.06;5072180;28;20040;-79
2020/12/15 00:24:47;;;;;;;14.23;10.68;;;12.20;99.90;;;12.34;88.10;100438.75;5070690;28;20117;-81
2020/12/15 00:27:15;;;;;;;13.38;10.80;;;12.20;99.90;;;12.25;88.31;100414.19;5072105;28;20103;-81
2020/12/15 00:29:42;;;;;;;15.02;11.38;;;12.20;99.90;;;12.22;88.30;100432.78;5072390;28;20133;-83
2020/12/15 00:32:09;;;;;;;14.35;11.23;;;12.20;99.90;;;12.14;88.81;100424.09;5072340;28;20119;-83
2020/12/15 00:34:37;;;;;;;15.02;10.30;;;12.10;99.90;;;12.18;88.64;100431.97;5072361;28;20127;-82
2020/12/15 00:37:09;;;;;;;13.43;10.32;;;12.10;99.90;;;12.06;88.90;100399.53;5072373;28;20040;-82
2020/12/15 00:39:36;;;;;;;15.32;10.60;;;12.10;99.90;;;12.26;88.80;100418.56;5072159;28;20124;-81
2020/12/15 00:42:05;;;;;;;14.90;10.65;;;12.10;99.90;;;12.13;88.87;100412.63;5072357;28;20124;-82
2020/12/15 00:44:34;;;;;;;14.15;10.60;;;12.10;99.90;;;12.22;88.88;100414.22;5071966;28;20485;-82
2020/12/15 00:47:03;;;;;;;14.55;10.02;;;12.10;99.90;;;12.22;88.78;100422.19;5072231;28;20056;-80
2020/12/15 00:49:31;;;;;;;11.15;9.68;;;12.10;99.90;;;12.17;88.66;100414.31;5072447;28;20041;-83
2020/12/15 00:51:59;;;;;;;13.70;10.43;;;12.10;99.90;;;12.36;88.36;100421.03;5070782;28;20048;-81
2020/12/15 00:54:27;;;;;;;13.00;9.63;;;12.20;99.90;;;12.00;88.27;100375.78;5070777;28;20059;-82
2020/12/15 00:56:55;;;;;;;16.77;11.10;;;12.20;99.90;;;12.10;88.29;100377.34;5070797;28;20121;-82
2020/12/15 00:59:24;;;;;;;16.27;11.23;;;12.20;99.90;;;12.23;88.29;100411.53;5070527;28;20060;-81
2020/12/15 01:01:51;;;;;;;16.02;10.80;;;12.20;99.90;;;12.19;88.63;100409.00;5071982;28;20037;-82
2020/12/15 01:04:20;;;;;;;13.82;10.55;;;12.10;99.90;;;12.29;88.43;100407.94;5071029;28;20049;-82
2020/12/15 01:06:49;;;;;;;14.55;11.48;;;12.20;99.90;;;12.13;88.35;100385.25;5070393;28;20131;-82
2020/12/15 01:09:21;;;;;;;18.52;11.80;;;12.20;99.90;;;12.28;88.50;100409.69;5072026;28;20055;-82
2020/12/15 01:11:49;;;;;;;17.20;12.25;;;12.20;99.90;;;12.17;88.55;100394.88;5071588;28;20041;-82
2020/12/15 01:14:20;;;;;;;15.00;11.23;;;12.10;99.90;;;12.20;88.79;100398.34;5071041;28;20055;-78
2020/12/15 01:16:52;;;;;;;19.13;12.60;;;12.10;99.90;;;12.26;88.79;100392.94;5070757;28;20045;-81
2020/12/15 01:19:20;;;;;;;16.92;13.18;;;12.10;99.90;;;12.26;88.87;100405.31;5070656;28;20055;-83
2020/12/15 01:21:48;;;;;;;15.38;11.63;;;12.20;99.90;;;12.29;88.82;100398.16;5071737;28;20513;-82
2020/12/15 01:24:22;;;;;;;20.30;13.57;;;12.20;99.90;;;12.17;88.79;100403.72;5074319;28;20139;-82
2020/12/15 01:27:09;;;;;;;17.05;13.48;;;12.20;99.90;;;12.16;89.19;100406.38;5075026;28;20055;-82
2020/12/15 01:29:49;;;;;;;15.45;13.00;;;12.10;99.90;;;12.17;89.05;100410.78;5075906;28;20052;-81
2020/12/15 01:32:18;;;;;;;15.52;13.13;;;12.10;99.90;;;12.16;89.18;100417.88;5074093;28;20051;-82
2020/12/15 01:34:47;;;;;;;17.05;13.18;;;12.10;99.90;;;12.15;89.36;100407.28;5074456;28;20370;-82
2020/12/15 01:37:15;;;;;;;18.00;12.73;;;12.10;99.90;;;12.16;89.41;100422.28;5074370;28;20049;-82
2020/12/15 01:39:42;;;;;;;19.33;14.30;;;12.00;99.90;;;11.92;89.68;100412.13;5074224;28;20037;-80
2020/12/15 01:42:20;;;;;;;23.13;15.77;;;12.00;99.90;;;11.97;90.42;100399.66;5073805;28;20044;-82
2020/12/15 01:44:54;;;;;;;21.92;15.45;;;11.90;99.90;;;12.05;90.49;100416.31;5074126;28;20482;-82
2020/12/15 01:47:22;;;;;;;19.90;15.48;;;12.00;99.90;;;12.02;90.38;100403.97;5074268;28;20463;-83
2020/12/15 01:49:50;;;;;;;17.55;14.85;;;12.00;99.90;;;11.99;89.85;100398.75;5075259;28;20045;-82
2020/12/15 01:52:19;;;;;;;21.08;14.93;;;12.00;99.90;;;12.05;90.24;100434.88;5075564;28;20147;-83
2020/12/15 01:54:56;;;;;;;20.85;16.95;;;12.00;99.90;;;12.13;90.20;100431.19;5075219;28;20117;-82
2020/12/15 01:57:39;;;;;;;24.90;18.02;;;12.00;99.90;;;12.16;89.90;100412.56;5073896;28;20055;-81
2020/12/15 02:00:19;;;;;;;21.27;15.68;;;12.10;99.90;;;11.64;89.70;100317.19;5073792;28;20466;-81
2020/12/15 02:03:05;;;;;;;20.23;14.65;;;12.10;99.90;;;12.31;89.22;100428.19;5073841;28;20043;-81
2020/12/15 02:05:51;;;;;;;19.92;14.00;;;12.20;99.90;;;12.39;89.09;100436.00;5074784;28;20141;-83
2020/12/15 02:08:19;;;;;;;20.13;14.25;;;12.20;99.90;;;12.32;88.76;100434.38;5073660;28;20052;-83
2020/12/15 02:10:46;;;;;;;15.80;12.48;;;12.10;99.90;;;12.36;88.58;100451.97;5074896;28;20045;-82
2020/12/15 02:13:22;;;;;;;15.00;12.30;;;12.20;99.90;;;12.36;88.35;100433.41;5073568;28;20143;-81
2020/12/15 02:15:50;;;;;;;16.25;12.32;;;12.20;99.90;;;12.51;87.97;100441.97;5073556;28;20053;-82
2020/12/15 02:18:19;;;;;;;19.48;12.90;;;12.30;99.90;;;12.50;87.78;100437.53;5074800;28;20036;-83
2020/12/15 02:20:51;;;;;;;23.27;14.90;;;12.30;99.90;;;12.39;87.76;100431.56;5073419;28;20057;-82
2020/12/15 02:23:26;;;;;;;19.23;14.88;;;12.30;99.90;;;12.35;87.93;100444.94;5073449;28;20057;-84
2020/12/15 02:26:03;;;;;;;19.98;15.50;;;12.30;99.90;;;12.27;88.27;100434.44;5073168;28;20125;-83
2020/12/15 02:28:32;;;;;;;20.98;15.55;;;12.20;99.90;;;12.21;88.41;100416.03;5073049;28;20475;-82
2020/12/15 02:31:00;;;;;;;20.63;16.48;;;12.20;99.90;;;12.31;88.67;100440.59;5073137;28;20048;-83
2020/12/15 02:33:37;;;;;;;19.40;16.00;;;12.20;99.90;;;12.37;88.22;100441.34;5073231;28;20056;-81
2020/12/15 02:36:05;;;;;;;20.23;16.42;;;12.20;99.90;;;12.37;88.46;100446.63;5073090;28;20080;-83
2020/12/15 02:38:39;;;;;;;20.48;14.88;;;12.20;99.90;;;12.39;87.64;100451.91;5073105;28;20044;-83
2020/12/15 02:41:08;;;;;;;18.23;14.32;;;12.20;99.90;;;12.13;87.83;100417.06;5074158;28;20049;-83
2020/12/15 02:43:46;;;;;;;22.23;14.77;;;12.20;99.90;;;12.42;87.82;100451.88;5073018;28;20044;-83
2020/12/15 02:46:15;;;;;;;17.02;14.00;;;12.20;99.90;;;12.37;87.97;100456.38;5074153;28;20114;-83
2020/12/15 02:48:43;;;;;;;17.98;15.10;;;12.20;99.90;;;12.43;88.02;100465.09;5072859;28;20066;-82
2020/12/15 02:51:13;;;;;;;21.25;14.55;;;12.30;99.90;;;12.24;88.01;100453.06;5072643;28;20044;-83
2020/12/15 02:54:00;;;;;;;19.25;14.75;;;12.20;99.90;;;12.27;88.01;100455.66;5073944;28;20138;-83
2020/12/15 02:56:28;;;;;;;17.55;14.25;;;12.10;99.90;;;12.21;87.75;100441.66;5073842;28;20102;-82
2020/12/15 02:58:57;;;;;;;19.70;15.50;;;12.20;99.90;;;12.35;87.75;100460.84;5072358;28;20055;-83
2020/12/15 03:01:24;;;;;;;18.17;14.23;;;12.20;99.90;;;12.37;87.70;100470.50;5073899;28;20044;-83
2020/12/15 03:03:57;;;;;;;18.38;14.50;;;12.20;99.90;;;12.46;87.35;100480.09;5073935;28;20036;-83
2020/12/15 03:06:33;;;;;;;17.08;14.07;;;12.20;99.90;;;12.51;87.24;100473.78;5106512;28;20053;-81
2020/12/15 03:09:07;;;;;;;15.55;13.13;;;12.30;99.90;;;12.57;86.97;100489.59;5073878;28;20124;-83
2020/12/15 03:11:37;;;;;;;14.55;13.02;;;12.30;99.90;;;12.51;86.90;100494.13;5072371;28;20132;-82
2020/12/15 03:14:11;;;;;;;17.65;13.45;;;12.40;99.90;;;12.52;86.64;100490.59;5072398;28;20048;-81
2020/12/15 03:16:39;;;;;;;18.88;13.48;;;12.30;99.90;;;12.52;86.94;100487.94;5072297;28;20413;-83
2020/12/15 03:19:07;;;;;;;19.67;13.57;;;12.30;99.90;;;12.54;86.85;100487.00;5072257;28;20072;-82
2020/12/15 03:21:35;;;;;;;19.58;13.68;;;12.40;99.90;;;12.43;86.63;100458.91;5073447;28;20048;-82
2020/12/15 03:24:04;;;;;;;16.17;12.98;;;12.40;99.90;;;12.66;86.24;100472.63;5073733;28;20048;-83
2020/12/15 03:26:33;;;;;;;15.68;13.38;;;12.40;99.90;;;12.58;86.14;100471.91;5072013;28;20052;-82
2020/12/15 03:29:06;;;;;;;18.88;13.88;;;12.40;99.90;;;12.66;85.96;100467.31;5072363;28;20093;-83
2020/12/15 03:31:33;;;;;;;16.58;13.05;;;12.50;99.90;;;12.54;85.93;100431.28;5073402;28;20058;-82
2020/12/15 03:34:01;;;;;;;15.30;13.35;;;12.50;99.90;;;12.68;85.72;100465.50;5073246;28;20051;-83
2020/12/15 03:36:30;;;;;;;18.05;13.93;;;12.50;99.90;;;12.60;85.67;100456.84;5072185;28;20125;-82
2020/12/15 03:39:00;;;;;;;16.42;13.88;;;12.40;99.90;;;12.63;85.94;100470.91;5071796;28;20409;-82
2020/12/15 03:41:31;;;;;;;17.35;13.40;;;12.40;99.90;;;12.55;85.74;100464.00;5071695;28;20053;-83
2020/12/15 03:44:07;;;;;;;15.88;14.18;;;12.40;99.90;;;12.62;86.04;100465.63;5071256;28;20044;-83
2020/12/15 03:46:40;;;;;;;15.88;14.18;;;12.40;99.90;;;12.61;85.67;100461.22;5071818;28;20524;-80
2020/12/15 03:49:13;;;;;;;19.38;13.80;;;12.40;99.90;;;12.62;85.73;100455.00;5071724;28;20048;-83
2020/12/15 03:51:48;;;;;;;15.43;13.43;;;12.40;99.90;;;12.53;85.58;100455.19;5071694;28;20045;-83
2020/12/15 03:54:33;;;;;;;16.77;13.82;;;12.40;99.90;;;12.56;86.02;100457.81;5073030;28;20044;-83
2020/12/15 03:57:18;;;;;;;15.45;13.77;;;12.40;99.90;;;12.57;85.85;100463.06;5072923;28;20060;-83
2020/12/15 04:00:07;;;;;;;17.48;13.68;;;12.40;99.90;;;12.43;86.12;100437.69;5071515;28;20064;-83
2020/12/15 04:02:48;;;;;;;16.90;13.35;;;12.40;99.90;;;12.61;85.78;100455.91;5071540;28;20048;-83
2020/12/15 04:05:26;;;;;;;18.02;14.30;;;12.40;99.90;;;12.57;85.99;100454.22;5071512;28;20080;-83
2020/12/15 04:08:00;;;;;;;17.55;14.00;;;12.40;99.90;;;12.53;86.25;100465.78;5071391;28;20044;-83
2020/12/15 04:10:27;;;;;;;16.88;13.98;;;12.30;99.90;;;12.62;85.82;100468.25;5071149;28;20052;-82
2020/12/15 04:12:57;;;;;;;14.95;13.30;;;12.40;99.90;;;12.52;85.89;100475.53;5071251;28;20052;-80
2020/12/15 04:15:31;;;;;;;16.35;13.75;;;12.40;99.90;;;12.58;85.94;100469.25;5071597;28;20417;-83
2020/12/15 04:18:02;;;;;;;14.82;13.15;;;12.30;99.90;;;12.64;85.44;100475.31;5070976;28;20055;-82
2020/12/15 04:20:31;;;;;;;16.13;13.80;;;12.40;99.90;;;12.59;85.55;100481.59;5071090;28;20135;-84
2020/12/15 04:22:59;;;;;;;20.75;14.05;;;12.40;99.90;;;12.58;85.90;100475.41;5071151;28;20033;-83
2020/12/15 04:25:31;;;;;;;15.82;13.18;;;12.40;99.90;;;12.61;85.67;100470.06;5070931;28;20044;-83
2020/12/15 04:27:58;;;;;;;16.30;13.75;;;12.40;99.90;;;12.59;85.67;100471.00;5071121;28;20056;-83
2020/12/15 04:30:26;;;;;;;17.35;13.25;;;12.40;99.90;;;12.49;85.68;100457.03;5071010;28;20062;-83
2020/12/15 04:32:58;;;;;;;17.48;13.40;;;12.50;99.90;;;12.66;85.81;100485.88;5071054;28;20139;-82
2020/12/15 04:35:36;;;;;;;14.45;12.75;;;12.40;99.90;;;12.46;85.49;100456.22;5071062;28;20482;-84
2020/12/15 04:38:05;;;;;;;16.52;13.15;;;12.40;99.90;;;12.45;85.87;100454.44;5071017;28;20049;-82
2020/12/15 04:40:34;;;;;;;17.40;12.85;;;12.40;99.90;;;12.65;86.00;100489.47;5070739;28;20040;-83
2020/12/15 04:43:10;;;;;;;15.45;13.52;;;12.40;99.90;;;12.70;85.85;100490.22;5071023;28;20045;-83
2020/12/15 04:45:39;;;;;;;15.75;12.52;;;12.50;99.90;;;12.64;85.73;100487.69;5072301;28;20051;-83
2020/12/15 04:48:10;;;;;;;15.40;12.85;;;12.40;99.90;;;12.69;85.65;100478.75;5070962;28;20040;-83
2020/12/15 04:51:03;;;;;;;15.82;13.43;;;12.50;99.90;;;12.64;85.36;100491.22;5070965;28;20163;-83
2020/12/15 04:53:37;;;;;;;15.10;13.30;;;12.50;99.90;;;12.64;85.67;100483.25;5071388;28;20397;-82
2020/12/15 04:56:31;;;;;;;16.05;13.32;;;12.40;99.90;;;12.68;85.39;100492.03;5069857;28;20045;-83
2020/12/15 04:59:24;;;;;;;20.50;13.60;;;12.40;99.90;;;12.51;85.78;100479.09;5075270;28;20041;-83
2020/12/15 05:02:02;;;;;;;14.77;13.18;;;12.40;99.90;;;12.67;85.94;100488.53;5074999;28;20105;-83
2020/12/15 05:04:39;;;;;;;17.20;14.10;;;12.40;99.90;;;12.60;85.95;100488.69;5074994;28;20194;-84
2020/12/15 05:07:12;;;;;;;19.15;14.32;;;12.40;99.90;;;12.56;86.07;100476.38;5074887;28;20508;-82
2020/12/15 05:10:20;;;;;;;15.93;13.75;;;12.30;99.90;;;12.47;85.73;100450.00;5065577;28;20044;-79
2020/12/15 05:13:08;;;;;;;17.50;14.13;;;12.40;99.90;;;11.88;85.95;100353.00;5074722;28;20135;-77
2020/12/15 05:15:35;;;;;;;17.02;13.98;;;12.40;99.90;;;12.47;85.95;100461.50;5074643;28;20060;-77
2020/12/15 05:18:22;;;;;;;16.50;14.00;;;12.40;99.90;;;12.50;86.25;100479.13;5074688;28;20048;-76
2020/12/15 05:20:53;;;;;;;19.60;13.98;;;12.30;99.90;;;12.48;86.65;100492.44;5074894;28;20581;-76
2020/12/15 05:23:26;;;;;;;16.05;13.77;;;12.30;99.90;;;12.51;86.66;100486.16;5074546;28;20052;-77
2020/12/15 05:26:03;;;;;;;16.67;14.32;;;12.30;99.90;;;12.54;86.46;100496.75;5074282;28;20545;-77
2020/12/15 05:28:39;;;;;;;17.55;14.88;;;12.30;99.90;;;12.51;86.40;100495.00;5074415;28;20051;-77
2020/12/15 05:31:07;;;;;;;15.82;14.18;;;12.30;99.90;;;12.56;86.35;100502.91;5074027;28;20127;-78
2020/12/15 05:33:53;;;;;;;15.75;14.10;;;12.30;99.90;;;12.49;86.79;100503.91;5075655;28;20067;-77
2020/12/15 05:36:51;;;;;;;22.05;14.75;;;12.30;99.90;;;12.44;86.50;100480.13;5075329;28;20137;-80
2020/12/15 05:39:45;;;;;;;17.35;14.25;;;12.30;99.90;;;12.52;86.58;100496.75;5075090;28;20048;-81
2020/12/15 05:42:20;;;;;;;17.70;14.70;;;12.30;99.90;;;12.45;86.29;100462.41;5073970;28;20056;-73
2020/12/15 05:44:48;;;;;;;19.15;13.70;;;12.40;99.90;;;12.52;86.24;100472.03;5074061;28;20101;-85
2020/12/15 05:47:23;;;;;;;18.85;15.55;;;12.40;99.90;;;12.65;86.26;100500.06;5075330;28;20037;-84
2020/12/15 05:50:00;;;;;;;18.92;15.27;;;12.40;99.90;;;12.58;86.36;100490.47;5107982;28;20056;-83
2020/12/15 05:52:29;;;;;;;16.65;14.95;;;12.40;99.90;;;12.58;86.64;100495.78;5075157;28;20041;-84
2020/12/15 05:55:06;;;;;;;17.42;15.15;;;12.40;99.90;;;12.56;86.85;100492.28;5075182;28;20076;-84
2020/12/15 05:57:34;;;;;;;17.63;14.93;;;12.30;99.90;;;12.58;86.58;100490.47;5075301;28;20036;-85
2020/12/15 06:00:09;;;;;;;18.42;15.80;;;12.40;99.90;;;12.50;86.28;100466.72;5074772;28;20119;-82
2020/12/15 06:02:42;;;;;;;16.95;14.60;;;12.40;99.90;;;12.58;86.55;100494.00;5074993;28;20414;-82
2020/12/15 06:05:10;;;;;;;18.33;15.75;;;12.40;99.90;;;12.56;86.66;100493.13;5073725;28;20799;-85
2020/12/15 06:07:44;;;;;;;17.67;15.85;;;12.40;99.90;;;12.57;86.81;100499.31;5107217;28;20041;-85
2020/12/15 06:10:11;;;;;;;18.88;16.63;;;12.40;99.90;;;12.62;86.47;100503.63;5074676;28;20776;-85
2020/12/15 06:12:39;;;;;;;22.45;16.23;;;12.40;99.90;;;12.50;86.60;100469.38;5074845;28;20455;-85
2020/12/15 06:15:07;;;;;;;18.90;15.77;;;12.40;99.90;;;12.56;86.38;100479.03;5074442;28;20094;-85
2020/12/15 06:17:34;;;;;;;19.25;15.20;;;12.40;99.90;;;12.68;86.16;100505.31;5073494;28;20041;-85
2020/12/15 06:20:03;;;;;;;18.55;15.05;;;12.50;99.90;;;12.54;86.05;100480.84;5074715;28;20043;-85
2020/12/15 06:22:32;;;;;;;17.42;14.68;;;12.50;99.90;;;12.73;86.14;100515.84;5074636;28;20040;-85
2020/12/15 06:25:01;;;;;;;16.85;14.40;;;12.50;99.90;;;12.64;86.27;100504.50;5074187;28;20526;-85
2020/12/15 06:27:35;;;;;;;17.23;14.77;;;12.50;99.90;;;12.73;86.02;100524.69;5074602;28;20090;-84
2020/12/15 06:30:05;;;;;;;16.48;14.40;;;12.50;99.90;;;12.73;85.81;100521.16;5074527;28;20140;-85
2020/12/15 06:32:33;;;;;;;16.13;13.57;;;12.60;99.90;;;12.76;85.83;100519.31;5074403;28;20044;-85
2020/12/15 06:35:08;;;;;;;17.02;14.85;;;12.60;99.90;;;11.97;85.94;100378.47;5074364;28;20048;-85
2020/12/15 06:37:36;;;;;;;16.80;14.95;;;12.50;99.90;;;12.74;85.79;100518.47;5072917;28;20121;-84
2020/12/15 06:40:05;;;;;;;20.02;15.60;;;12.50;99.90;;;12.76;85.81;100515.78;5074176;28;20051;-84
2020/12/15 06:42:35;;;;;;;18.65;15.60;;;12.50;99.90;;;12.67;85.84;100512.41;5073965;28;20489;-84
2020/12/15 06:45:07;;;;;;;20.25;15.15;;;12.50;99.90;;;12.44;86.16;100484.56;5074374;28;20048;-84
2020/12/15 06:47:35;;;;;;;16.17;14.23;;;12.40;99.90;;;12.57;86.27;100521.44;5072965;28;20150;-85
2020/12/15 06:50:12;;;;;;;18.67;15.45;;;12.30;99.90;;;12.58;86.28;100511.72;5074199;28;20040;-84
2020/12/15 06:52:40;;;;;;;18.25;15.55;;;12.40;99.90;;;12.64;86.16;100520.41;5073934;28;20101;-84
2020/12/15 06:55:09;;;;;;;22.08;15.65;;;12.40;99.90;;;12.47;86.27;100517.19;5074327;28;20768;-85
2020/12/15 06:57:38;;;;;;;19.08;14.68;;;12.30;99.90;;;12.42;86.33;100515.53;5074012;28;20044;-84
2020/12/15 07:00:08;;;;;;;18.15;15.48;;;12.30;99.90;;;12.60;86.16;100531.13;5073963;28;20071;-85
2020/12/15 07:02:36;;;;;;;19.90;15.90;;;12.30;99.90;;;12.57;86.28;100531.16;5073882;28;20066;-84
2020/12/15 07:05:19;;;;;;;18.65;14.95;;;12.30;99.90;;;12.44;86.32;100516.38;5073823;28;20098;-82
2020/12/15 07:07:49;;;;;;;19.10;15.60;;;12.30;99.90;;;12.62;86.00;100537.25;5073547;28;20521;-84
2020/12/15 07:10:18;;;;;;;21.10;15.77;;;12.30;99.90;;;12.49;85.96;100517.16;5072166;28;20063;-84
2020/12/15 07:12:48;;;;;;;21.08;16.08;;;12.40;99.90;;;12.67;85.75;100530.09;5073392;28;20050;-84
2020/12/15 07:15:16;;;;;;;20.63;15.52;;;12.40;99.90;;;12.68;85.37;100539.81;5073681;28;20044;-84
2020/12/15 07:17:48;;;;;;;20.27;15.85;;;12.40;99.90;;;12.67;85.70;100540.72;5073341;28;20048;-84
2020/12/15 07:20:17;;;;;;;18.42;15.30;;;12.40;99.90;;;12.68;85.34;100550.41;5072825;28;20056;-84
2020/12/15 07:22:45;;;;;;;17.23;15.25;;;12.40;99.90;;;12.63;85.17;100557.59;5072105;28;20109;-84
2020/12/15 07:25:14;;;;;;;17.70;15.20;;;12.40;99.90;;;12.59;85.44;100564.75;5073169;28;20068;-85
2020/12/15 07:27:44;;;;;;;17.13;14.02;;;12.40;99.90;;;12.59;85.70;100567.38;5073370;28;20402;-85
2020/12/15 07:30:13;;;;;;;19.75;15.50;;;12.40;99.90;;;12.56;85.22;100542.69;5073337;28;20098;-85
2020/12/15 07:32:43;;;;;;;18.52;14.93;;;12.40;99.90;;;12.74;85.26;100560.06;5073140;28;20466;-84
2020/12/15 07:35:13;;;;;;;17.45;15.18;;;12.50;99.90;;;12.69;85.14;100563.69;5072981;28;20123;-85
2020/12/15 07:37:43;;;;;;;18.65;16.10;;;12.50;99.90;;;12.70;84.95;100569.84;5071566;28;20048;-84
2020/12/15 07:40:13;;;;;;;19.83;15.30;;;12.50;99.90;;;12.70;84.85;100581.34;5072854;28;20033;-84
2020/12/15 07:42:54;;;;;;;18.63;15.45;;;12.40;99.90;;;12.65;84.80;100561.09;5072799;28;20441;-84
2020/12/15 07:45:24;;;;;;;19.10;15.00;;;12.50;99.90;;;12.87;84.47;100577.50;5072834;28;20094;-83
2020/12/15 07:47:53;;;;;;;19.85;14.82;;;12.50;99.90;;;12.85;84.63;100585.50;5074065;28;20382;-84
2020/12/15 07:50:26;;;;;;;19.02;15.38;;;12.60;99.90;;;12.82;84.60;100590.84;5073242;28;20123;-82
2020/12/15 07:52:55;;;;;;;19.77;15.05;;;12.60;99.90;;;12.90;84.66;100599.56;5073029;28;20102;-84
2020/12/15 07:55:24;;;;;;;19.25;15.50;;;12.60;99.90;;;12.81;84.18;100599.75;5072639;28;20041;-82
2020/12/15 07:57:52;;;;;;;17.75;14.32;;;12.60;99.90;;;12.88;84.30;100600.47;5072501;28;20048;-83
2020/12/15 08:00:21;;;;;;;19.95;15.10;;;12.60;99.90;;;12.88;84.41;100601.38;5072453;28;20036;-85
2020/12/15 08:02:51;;;;;;;;;;;12.60;99.90;;;12.76;84.18;100577.69;5072893;28;20470;-84
2020/12/15 08:05:21;;;;;;;19.85;15.40;;;12.70;99.90;;;12.86;84.36;100619.09;5072671;28;19924;-83
2020/12/15 08:07:51;;;;;;;19.17;16.10;;;12.70;99.90;;;12.84;84.09;100618.25;5073027;28;20098;-83
2020/12/15 08:10:24;;;;;;;25.42;16.48;;;12.60;99.90;;;12.87;84.23;100618.22;5072493;28;20040;-82
2020/12/15 08:12:56;;;;;;;18.63;15.60;;;12.70;99.90;;;12.64;84.25;100596.47;5072382;28;20048;-85
2020/12/15 08:15:24;;;;;;;19.85;16.65;;;12.60;99.90;;;12.80;84.42;100627.16;5071278;28;20055;-85
2020/12/15 08:17:52;;;;;;;22.23;16.90;;;12.60;99.90;;;12.70;84.37;100605.22;5072255;28;20450;-85
2020/12/15 08:20:28;;;;;;;25.10;16.70;;;12.60;99.90;;;12.71;84.33;100603.44;5072537;28;20383;-84
2020/12/15 08:23:07;;;;;;;20.98;16.42;;;12.60;99.90;;;12.71;84.32;100611.41;5072216;28;20044;-84
2020/12/15 08:25:36;;;;;;;20.63;16.07;;;12.60;99.90;;;12.70;84.67;100630.88;5072044;28;20063;-83
2020/12/15 08:28:10;;;;;;;21.33;16.13;;;12.50;99.90;;;12.61;84.62;100617.78;5072129;28;20437;-84
2020/12/15 08:30:38;;;;;;;19.65;16.63;;;12.50;99.90;;;12.89;84.58;100634.97;5072392;28;20062;-85
2020/12/15 08:33:07;;;;;;;22.13;15.55;;;12.60;99.90;;;12.69;84.39;100624.72;5072418;28;20044;-85
2020/12/15 08:35:34;;;;;;;21.90;15.85;;;12.60;99.90;;;12.78;84.54;100644.00;5072094;28;20051;-85
2020/12/15 08:38:05;;;;;;;21.17;16.25;;;12.50;99.90;;;12.74;84.35;100627.25;5072228;28;20100;-84
2020/12/15 08:40:32;;;;;;;;;;;12.60;99.90;;;12.85;84.25;100651.88;5072548;28;20036;-84
2020/12/15 08:43:03;;;;;;;19.15;15.88;;;12.70;99.90;;;12.88;84.26;100664.19;5071989;28;20266;-81
2020/12/15 08:45:32;;;;;;;22.45;16.20;;;12.60;99.90;;;12.85;84.65;100657.19;5072305;28;20044;-85
2020/12/15 08:48:00;;;;;;;18.58;16.55;;;12.60;99.90;;;12.13;84.52;100546.97;5072258;28;20048;-85
2020/12/15 08:50:29;;;;;;;19.15;16.65;;;12.60;99.90;;;12.73;84.66;100657.38;5070992;28;20045;-85
2020/12/15 08:53:14;;;;;;;19.10;16.10;;;12.60;99.90;;;12.70;84.87;100683.94;5072615;28;20040;-84
2020/12/15 08:55:44;;;;;;;22.30;17.58;;;12.50;99.90;;;12.70;85.09;100682.19;5071957;28;20083;-84
2020/12/15 08:58:13;;;;;;;20.92;16.73;;;12.50;99.90;;;12.71;85.23;100696.34;5072052;28;20115;-82
2020/12/15 09:00:47;;;;;;;20.20;16.80;;;12.40;99.90;;;12.80;84.90;100697.94;5071881;28;20045;-84
2020/12/15 09:03:16;;;;;;;21.25;17.08;;;12.50;99.90;;;12.84;84.78;100691.69;5072140;28;20040;-84
2020/12/15 09:05:49;;;;;;;19.50;16.63;;;12.50;99.90;;;12.56;84.80;100656.78;5072027;28;20063;-83
2020/12/15 09:08:17;;;;;;;18.90;16.63;;;12.50;99.90;;;12.65;84.78;100668.13;5071786;28;20129;-84
2020/12/15 09:10:45;;;;;;;19.98;17.13;;;12.50;99.90;;;12.80;84.90;100695.28;5072036;28;20044;-84
2020/12/15 09:13:12;;;;;;;22.65;16.27;;;12.50;99.90;;;12.70;85.01;100691.91;5071658;28;20386;-84
2020/12/15 09:15:48;;;;;;;19.85;16.60;;;12.50;99.90;;;12.83;84.83;100688.19;5071930;28;20040;-84
2020/12/15 09:18:17;;;;;;;20.63;17.00;;;12.50;99.90;;;12.87;84.86;100699.63;5071660;28;20041;-84
2020/12/15 09:20:44;;;;;;;19.45;16.80;;;12.60;99.90;;;12.84;84.53;100702.31;5071620;28;20452;-83
2020/12/15 09:23:12;;;;;;;22.00;16.05;;;12.60;99.90;;;12.55;84.78;100661.19;5071300;28;20044;-84
2020/12/15 09:25:40;;;;;;;20.40;16.83;;;12.50;99.90;;;12.83;84.90;100708.53;5071461;28;20056;-84
2020/12/15 09:28:07;;;;;;;19.55;15.98;;;12.50;99.90;;;12.79;84.81;100713.03;5071504;28;20052;-84
2020/12/15 09:30:35;;;;;;;21.33;17.23;;;12.50;99.90;;;12.74;84.65;100714.84;5071595;28;20090;-84
2020/12/15 09:33:09;;;;;;;21.80;17.00;;;12.50;99.90;;;12.72;84.94;100721.97;5071361;28;20561;-84
2020/12/15 09:35:37;;;;;;;21.58;15.70;;;12.50;99.90;;;12.75;85.02;100724.59;5071610;28;20044;-83
2020/12/15 09:38:04;;;;;;;23.05;17.17;;;12.50;99.90;;;12.85;84.46;100735.94;5071786;28;20083;-84
2020/12/15 09:40:31;;;;;;;19.02;16.35;;;12.60;99.90;;;12.87;84.32;100740.31;5070364;28;20103;-83
2020/12/15 09:42:59;;;;;;;24.15;17.00;;;12.60;99.90;;;12.82;84.57;100744.81;5071714;28;20428;-85
2020/12/15 09:45:26;;;;;;;20.20;16.00;;;12.50;99.90;;;12.83;84.60;100751.00;5075602;28;20045;-83
2020/12/15 09:47:58;;;;;;;25.27;18.50;;;12.60;99.90;;;12.86;84.47;100748.28;5075217;28;20184;-84
2020/12/15 09:50:27;;;;;;;24.75;17.48;;;12.60;99.90;;;12.71;84.64;100730.84;5075338;28;20044;-83
2020/12/15 09:52:54;;;;;;;22.50;17.45;;;12.50;99.90;;;12.78;84.63;100745.75;5074847;28;20044;-84
2020/12/15 09:55:22;;;;;;;20.17;17.35;;;12.50;99.90;;;12.78;84.80;100753.72;5074865;28;20110;-84
2020/12/15 09:57:49;;;;;;;21.05;15.90;;;12.50;99.90;;;12.82;84.67;100751.88;5074826;28;20454;-84
2020/12/15 10:00:17;;;;;;;21.60;17.58;;;12.50;99.90;;;12.80;84.90;100748.38;5074820;28;20098;-84
2020/12/15 10:02:44;;;;;;;18.58;16.52;;;12.50;99.90;;;12.74;84.49;100744.03;5074496;28;20553;-84
2020/12/15 10:05:12;;;;;;;21.63;16.85;;;12.50;99.90;;;12.73;84.92;100758.22;5074528;28;20509;-84
2020/12/15 10:07:41;;;;;;;22.58;16.50;;;12.50;99.90;;;12.75;84.84;100759.09;5107459;28;20051;-85
2020/12/15 10:10:10;;;;;;;19.67;16.77;;;12.50;99.90;;;12.79;85.07;100754.59;5074926;28;20037;-83
2020/12/15 10:12:45;;;;;;;20.65;16.38;;;12.50;99.90;;;12.73;84.77;100717.53;5074619;28;20490;-84
2020/12/15 10:15:13;;;;;;;20.60;16.80;;;12.50;99.90;;;12.93;84.31;100731.38;5074786;28;20064;-84
2020/12/15 10:17:41;;;;;;;22.73;16.63;;;12.60;99.90;;;12.87;84.26;100747.41;5073421;28;20106;-84